createdAt,value
2022-10-16T00:01:05.738Z,22.70
2022-10-16T00:04:08.803Z,22.70
2022-10-16T00:07:10.291Z,22.60
2022-10-16T00:10:11.502Z,22.70
2022-10-16T00:13:12.964Z,22.80
2022-10-16T00:16:15.426Z,22.90
2022-10-16T00:19:17.508Z,22.40
2022-10-16T00:22:18.937Z,22.70
2022-10-16T00:25:23.409Z,22.90
2022-10-16T00:28:25.083Z,22.90
2022-10-16T00:31:26.615Z,22.70
2022-10-16T00:34:28.613Z,22.70
2022-10-16T00:37:30.167Z,22.60
2022-10-16T00:40:31.953Z,22.70
2022-10-16T00:43:37.736Z,22.60
2022-10-16T00:46:41.957Z,23.00
2022-10-16T00:49:44.000Z,22.90
2022-10-16T00:52:48.902Z,22.90
2022-10-16T00:55:53.752Z,22.60
2022-10-16T00:58:56.020Z,22.60
2022-10-16T01:01:59.024Z,23.00
2022-10-16T01:05:01.386Z,22.80
2022-10-16T01:08:12.218Z,23.00
2022-10-16T01:11:22.504Z,23.30
2022-10-16T01:14:31.580Z,22.30
2022-10-16T01:17:39.781Z,22.30
2022-10-16T01:20:46.053Z,22.60
2022-10-16T01:24:00.859Z,22.60
2022-10-16T01:27:10.172Z,22.70
2022-10-16T01:30:15.666Z,22.80
2022-10-16T01:33:21.141Z,22.90
2022-10-16T01:36:29.130Z,22.90
2022-10-16T01:39:34.750Z,22.60
2022-10-16T01:42:40.812Z,22.70
2022-10-16T01:45:44.483Z,22.80
2022-10-16T01:48:46.793Z,22.70
2022-10-16T01:51:51.508Z,22.60
2022-10-16T01:54:55.832Z,23.10
2022-10-16T01:58:01.110Z,22.70
2022-10-16T02:01:03.663Z,22.60
2022-10-16T02:04:09.651Z,22.80
2022-10-16T02:07:11.666Z,22.30
2022-10-16T02:10:13.134Z,22.60
2022-10-16T02:13:17.503Z,22.40
2022-10-16T02:16:19.577Z,22.90
2022-10-16T02:19:25.818Z,22.60
2022-10-16T02:22:30.407Z,22.70
2022-10-16T02:25:35.630Z,22.70
2022-10-16T02:28:43.465Z,22.70
2022-10-16T02:31:51.522Z,22.90
2022-10-16T02:34:53.383Z,22.50
2022-10-16T02:37:56.135Z,22.90
2022-10-16T02:40:57.838Z,22.70
2022-10-16T02:44:00.058Z,22.10
2022-10-16T02:47:01.560Z,22.50
2022-10-16T02:50:03.620Z,22.80
2022-10-16T02:53:05.151Z,22.70
2022-10-16T02:56:06.567Z,22.30
2022-10-16T02:59:08.722Z,22.30
2022-10-16T03:02:10.654Z,22.70
2022-10-16T03:05:12.118Z,22.50
2022-10-16T03:08:14.279Z,22.60
2022-10-16T03:11:15.692Z,22.50
2022-10-16T03:14:17.512Z,22.40
2022-10-16T03:17:19.180Z,22.60
2022-10-16T03:20:20.883Z,22.40
2022-10-16T03:23:22.348Z,22.70
2022-10-16T03:26:23.819Z,22.30
2022-10-16T03:29:26.085Z,22.20
2022-10-16T03:32:28.729Z,23.00
2022-10-16T03:35:30.368Z,22.50
2022-10-16T03:38:31.751Z,22.80
2022-10-16T03:41:33.032Z,22.60
2022-10-16T03:44:35.113Z,22.20
2022-10-16T03:47:36.767Z,22.60
2022-10-16T03:50:38.571Z,22.70
2022-10-16T03:53:40.086Z,22.30
2022-10-16T03:56:41.355Z,22.40
2022-10-16T03:59:43.839Z,22.60
2022-10-16T04:05:51.570Z,22.70
2022-10-16T04:08:52.793Z,22.30
2022-10-16T04:11:54.185Z,22.50
2022-10-16T04:14:56.153Z,22.10
2022-10-16T04:17:57.565Z,22.50
2022-10-16T04:21:02.936Z,22.50
2022-10-16T04:24:04.677Z,22.10
2022-10-16T04:27:06.089Z,22.50
2022-10-16T04:30:08.939Z,22.50
2022-10-16T04:33:10.413Z,22.80
2022-10-16T04:36:11.787Z,22.40
2022-10-16T04:39:13.166Z,22.20
2022-10-16T04:42:14.418Z,22.40
2022-10-16T04:45:17.256Z,22.00
2022-10-16T04:48:19.087Z,22.40
2022-10-16T04:51:20.678Z,22.00
2022-10-16T04:54:22.019Z,22.30
2022-10-16T04:57:23.849Z,22.40
2022-10-16T05:00:26.267Z,22.10
2022-10-16T05:03:27.839Z,22.20
2022-10-16T05:06:29.226Z,22.10
2022-10-16T05:09:30.487Z,22.20
2022-10-16T05:12:32.258Z,22.40
2022-10-16T05:15:34.460Z,22.00
2022-10-16T05:18:35.910Z,22.20
2022-10-16T05:21:37.422Z,22.70
2022-10-16T05:24:38.803Z,22.20
2022-10-16T05:27:40.191Z,22.30
2022-10-16T05:30:42.324Z,22.50
2022-10-16T05:33:44.359Z,22.40
2022-10-16T05:36:46.623Z,22.50
2022-10-16T05:39:47.898Z,22.50
2022-10-16T05:42:49.240Z,22.50
2022-10-16T05:45:55.311Z,22.50
2022-10-16T05:48:56.836Z,22.40
2022-10-16T05:52:01.466Z,22.20
2022-10-16T05:55:03.130Z,22.60
2022-10-16T05:58:04.525Z,22.20
2022-10-16T06:01:07.493Z,22.10
2022-10-16T06:04:09.109Z,22.10
2022-10-16T06:07:11.009Z,22.40
2022-10-16T06:10:12.413Z,22.20
2022-10-16T06:13:14.172Z,22.10
2022-10-16T06:16:15.993Z,22.10
2022-10-16T06:19:17.775Z,22.50
2022-10-16T06:22:22.397Z,22.30
2022-10-16T06:25:23.791Z,22.50
2022-10-16T06:28:25.094Z,22.30
2022-10-16T06:31:30.420Z,22.00
2022-10-16T06:34:31.831Z,22.00
2022-10-16T06:37:33.161Z,22.50
2022-10-16T06:40:34.540Z,22.60
2022-10-16T06:43:35.815Z,22.50
2022-10-16T06:46:37.952Z,22.60
2022-10-16T06:49:39.487Z,22.40
2022-10-16T06:52:41.102Z,22.50
2022-10-16T06:55:42.450Z,22.60
2022-10-16T06:58:44.291Z,22.20
2022-10-16T07:01:46.242Z,22.40
2022-10-16T07:04:47.823Z,22.50
2022-10-16T07:07:52.386Z,22.50
2022-10-16T07:11:00.055Z,22.60
2022-10-16T07:14:01.475Z,22.40
2022-10-16T07:17:03.350Z,22.20
2022-10-16T07:20:05.411Z,22.30
2022-10-16T07:23:06.992Z,22.40
2022-10-16T07:26:09.713Z,22.40
2022-10-16T07:29:13.908Z,22.50
2022-10-16T07:32:16.165Z,22.10
2022-10-16T07:35:17.637Z,22.50
2022-10-16T07:38:19.799Z,22.70
2022-10-16T07:41:21.238Z,22.30
2022-10-16T07:44:22.559Z,22.70
2022-10-16T07:47:24.890Z,22.30
2022-10-16T07:50:26.602Z,22.30
2022-10-16T07:53:31.446Z,22.60
2022-10-16T07:56:33.005Z,22.60
2022-10-16T07:59:34.423Z,22.30
2022-10-16T08:02:36.447Z,22.40
2022-10-16T08:05:37.875Z,22.10
2022-10-16T08:08:39.198Z,22.40
2022-10-16T08:11:40.703Z,22.30
2022-10-16T08:14:44.435Z,22.40
2022-10-16T08:17:56.493Z,22.60
2022-10-16T08:20:59.142Z,22.60
2022-10-16T08:24:00.909Z,22.70
2022-10-16T08:27:05.567Z,22.30
2022-10-16T08:30:08.460Z,22.30
2022-10-16T08:33:10.500Z,22.60
2022-10-16T08:36:13.041Z,23.00
2022-10-16T08:39:14.524Z,22.70
2022-10-16T08:42:29.678Z,22.80
2022-10-16T08:45:42.777Z,22.70
2022-10-16T08:48:47.997Z,22.80
2022-10-16T08:51:51.051Z,22.90
2022-10-16T08:54:55.999Z,22.70
2022-10-16T08:57:58.360Z,22.70
2022-10-16T09:01:02.405Z,22.60
2022-10-16T09:04:39.444Z,22.80
2022-10-16T09:07:49.432Z,22.50
2022-10-16T09:10:57.277Z,22.70
2022-10-16T09:14:05.023Z,22.80
2022-10-16T09:17:20.810Z,22.80
2022-10-16T09:20:33.940Z,22.90
2022-10-16T09:23:38.512Z,22.80
2022-10-16T09:26:40.202Z,22.50
2022-10-16T09:29:41.663Z,23.00
2022-10-16T09:32:44.910Z,22.50
2022-10-16T09:35:50.048Z,22.70
2022-10-16T09:39:03.450Z,22.80
2022-10-16T09:42:05.138Z,23.00
2022-10-16T09:45:20.479Z,23.00
2022-10-16T09:48:22.582Z,22.90
2022-10-16T09:51:26.978Z,23.00
2022-10-16T09:54:28.520Z,22.60
2022-10-16T09:57:33.664Z,22.80
2022-10-16T10:00:35.159Z,22.80
2022-10-16T10:03:37.991Z,23.00
2022-10-16T10:06:45.632Z,23.00
2022-10-16T10:09:47.783Z,22.60
2022-10-16T10:12:49.361Z,22.80
2022-10-16T10:15:51.567Z,22.80
2022-10-16T10:18:59.076Z,22.90
2022-10-16T10:22:01.044Z,22.80
2022-10-16T10:25:26.847Z,22.50
2022-10-16T10:28:55.931Z,22.60
2022-10-16T10:32:08.589Z,23.10
2022-10-16T10:35:19.039Z,23.30
2022-10-16T10:38:31.431Z,22.60
2022-10-16T10:41:57.552Z,22.50
2022-10-16T10:45:17.765Z,22.70
2022-10-16T10:48:48.525Z,23.00
2022-10-16T10:52:00.316Z,22.90
2022-10-16T10:55:13.658Z,23.10
2022-10-16T10:58:43.050Z,22.80
2022-10-16T11:01:56.104Z,23.20
2022-10-16T11:05:23.552Z,23.30
2022-10-16T11:08:34.189Z,22.50
2022-10-16T11:11:41.844Z,22.80
2022-10-16T11:14:50.077Z,23.00
2022-10-16T11:17:58.439Z,23.10
2022-10-16T11:21:05.389Z,23.30
2022-10-16T11:24:15.284Z,23.20
2022-10-16T11:27:19.932Z,23.20
2022-10-16T11:30:24.383Z,23.10
2022-10-16T11:33:31.765Z,23.10
2022-10-16T11:36:38.590Z,23.10
2022-10-16T11:39:42.436Z,22.70
2022-10-16T11:42:53.409Z,23.00
2022-10-16T11:45:57.839Z,22.50
2022-10-16T11:49:09.731Z,22.60
2022-10-16T11:52:19.514Z,22.90
2022-10-16T11:55:24.830Z,23.10
2022-10-16T11:58:33.562Z,22.90
2022-10-16T12:01:41.860Z,23.00
2022-10-16T12:04:48.371Z,22.50
2022-10-16T12:08:00.978Z,23.00
2022-10-16T12:11:21.322Z,22.60
2022-10-16T12:14:51.715Z,22.80
2022-10-16T12:17:58.495Z,22.60
2022-10-16T12:21:05.341Z,23.00
2022-10-16T12:24:07.459Z,23.10
2022-10-16T12:27:25.010Z,23.00
2022-10-16T12:30:31.061Z,23.40
2022-10-16T12:33:41.301Z,23.00
2022-10-16T12:36:43.142Z,22.80
2022-10-16T12:39:44.711Z,23.00
2022-10-16T12:42:46.194Z,22.50
2022-10-16T12:45:58.919Z,22.60
2022-10-16T12:49:16.730Z,23.10
2022-10-16T12:52:27.624Z,22.60
2022-10-16T12:55:42.908Z,23.00
2022-10-16T12:58:56.570Z,22.70
2022-10-16T13:02:17.180Z,23.00
2022-10-16T13:05:33.633Z,22.60
2022-10-16T13:08:51.126Z,22.70
2022-10-16T13:12:08.875Z,23.20
2022-10-16T13:15:24.620Z,23.00
2022-10-16T13:18:34.494Z,22.90
2022-10-16T13:21:44.809Z,23.10
2022-10-16T13:24:59.594Z,22.90
2022-10-16T13:28:02.301Z,22.60
2022-10-16T13:31:04.494Z,23.10
2022-10-16T13:34:12.994Z,22.90
2022-10-16T13:37:19.105Z,23.00
2022-10-16T13:40:22.817Z,22.90
2022-10-16T13:43:28.258Z,22.80
2022-10-16T13:46:34.423Z,23.00
2022-10-16T13:49:36.411Z,23.00
2022-10-16T13:52:38.272Z,22.90
2022-10-16T13:55:40.082Z,23.10
2022-10-16T13:58:41.962Z,23.20
2022-10-16T14:01:44.818Z,23.00
2022-10-16T14:04:48.018Z,22.80
2022-10-16T14:07:51.360Z,23.10
2022-10-16T14:10:55.739Z,22.70
2022-10-16T14:13:57.590Z,23.50
2022-10-16T14:16:59.071Z,23.60
2022-10-16T14:20:06.941Z,23.10
2022-10-16T14:23:21.646Z,23.30
2022-10-16T14:26:24.563Z,22.80
2022-10-16T14:29:27.631Z,23.20
2022-10-16T14:32:29.603Z,22.80
2022-10-16T14:35:34.209Z,23.10
2022-10-16T14:38:36.369Z,23.10
2022-10-16T14:41:48.281Z,23.20
2022-10-16T14:44:52.989Z,23.30
2022-10-16T14:47:57.676Z,23.10
2022-10-16T14:50:59.676Z,23.30
2022-10-16T14:54:02.016Z,23.50
2022-10-16T14:57:03.769Z,23.30
2022-10-16T15:00:14.175Z,23.10
2022-10-16T15:03:16.011Z,23.20
2022-10-16T15:06:17.961Z,23.30
2022-10-16T15:09:19.384Z,23.40
2022-10-16T15:12:21.103Z,23.00
2022-10-16T15:15:32.687Z,23.00
2022-10-16T15:18:34.068Z,23.20
2022-10-16T15:21:35.917Z,23.30
2022-10-16T15:24:37.539Z,23.50
2022-10-16T15:27:42.090Z,23.30
2022-10-16T15:30:45.342Z,23.40
2022-10-16T15:33:53.123Z,23.50
2022-10-16T15:36:57.014Z,23.00
2022-10-16T15:39:58.407Z,23.30
2022-10-16T15:42:59.877Z,23.20
2022-10-16T15:46:03.779Z,23.30
2022-10-16T15:49:05.250Z,23.40
2022-10-16T15:52:07.225Z,23.20
2022-10-16T15:55:09.703Z,23.40
2022-10-16T15:58:11.243Z,23.40
2022-10-16T16:01:12.812Z,23.30
2022-10-16T16:04:31.833Z,23.30
2022-10-16T16:07:37.076Z,23.30
2022-10-16T16:10:38.588Z,23.20
2022-10-16T16:13:41.442Z,23.50
2022-10-16T16:16:42.962Z,23.30
2022-10-16T16:19:44.414Z,23.40
2022-10-16T16:22:46.473Z,23.20
2022-10-16T16:26:05.005Z,23.50
2022-10-16T16:29:07.546Z,23.50
2022-10-16T16:32:09.130Z,23.20
2022-10-16T16:35:10.689Z,23.60
2022-10-16T16:38:12.720Z,22.70
2022-10-16T16:41:15.594Z,23.40
2022-10-16T16:44:17.378Z,23.20
2022-10-16T16:47:18.814Z,22.90
2022-10-16T16:50:20.874Z,23.20
2022-10-16T16:53:22.886Z,23.50
2022-10-16T16:56:25.527Z,23.50
2022-10-16T16:59:32.818Z,23.40
2022-10-16T17:02:34.320Z,23.50
2022-10-16T17:05:35.731Z,23.20
2022-10-16T17:08:38.112Z,23.30
2022-10-16T17:11:41.533Z,23.40
2022-10-16T17:14:43.314Z,23.40
2022-10-16T17:17:44.826Z,23.50
2022-10-16T17:20:47.007Z,23.50
2022-10-16T17:23:52.100Z,23.30
2022-10-16T17:26:53.499Z,23.00
2022-10-16T17:29:54.738Z,23.50
2022-10-16T17:32:56.192Z,23.10
2022-10-16T17:35:58.885Z,23.60
2022-10-16T17:39:03.575Z,23.50
2022-10-16T17:42:04.935Z,23.20
2022-10-16T17:45:06.957Z,23.30
2022-10-16T17:48:08.473Z,23.30
2022-10-16T17:51:13.190Z,23.00
2022-10-16T17:54:15.144Z,23.50
2022-10-16T17:57:16.682Z,23.30
2022-10-16T18:00:18.523Z,23.50
2022-10-16T18:03:19.961Z,23.10
2022-10-16T18:06:22.981Z,23.30
2022-10-16T18:09:25.538Z,22.90
2022-10-16T18:12:27.775Z,23.20
2022-10-16T18:15:29.590Z,23.70
2022-10-16T18:18:34.232Z,23.50
2022-10-16T18:21:35.672Z,23.60
2022-10-16T18:24:37.698Z,23.40
2022-10-16T18:27:39.165Z,23.70
2022-10-16T18:30:40.579Z,23.70
2022-10-16T18:33:47.117Z,23.50
2022-10-16T18:36:51.383Z,23.00
2022-10-16T18:39:56.300Z,23.50
2022-10-16T18:42:57.665Z,23.20
2022-10-16T18:45:59.951Z,23.50
2022-10-16T18:49:04.574Z,23.40
2022-10-16T18:52:06.234Z,23.50
2022-10-16T18:55:09.586Z,23.50
2022-10-16T18:58:11.037Z,23.40
2022-10-16T19:01:16.495Z,23.30
2022-10-16T19:04:19.260Z,23.30
2022-10-16T19:07:20.701Z,23.40
2022-10-16T19:10:22.521Z,23.50
2022-10-16T19:13:23.913Z,23.50
2022-10-16T19:16:29.205Z,23.40
2022-10-16T19:19:30.906Z,23.30
2022-10-16T19:22:50.930Z,23.20
2022-10-16T19:25:52.960Z,23.20
2022-10-16T19:28:57.527Z,23.40
2022-10-16T19:32:03.834Z,23.30
2022-10-16T19:35:08.711Z,23.00
2022-10-16T19:38:10.225Z,23.30
2022-10-16T19:41:14.329Z,23.30
2022-10-16T19:44:17.069Z,23.50
2022-10-16T19:47:20.863Z,23.60
2022-10-16T19:50:24.599Z,23.10
2022-10-16T19:53:27.760Z,23.20
2022-10-16T19:56:31.602Z,23.30
2022-10-16T19:59:33.005Z,23.60
2022-10-16T20:02:34.615Z,22.90
2022-10-16T20:05:36.148Z,23.40
2022-10-16T20:08:38.773Z,23.80
2022-10-16T20:11:40.889Z,23.40
2022-10-16T20:14:42.522Z,23.50
2022-10-16T20:17:44.541Z,23.20
2022-10-16T20:20:50.375Z,22.90
2022-10-16T20:23:52.253Z,23.10
2022-10-16T20:26:54.332Z,23.40
2022-10-16T20:29:55.935Z,23.80
2022-10-16T20:32:57.477Z,23.50
2022-10-16T20:35:58.847Z,23.30
2022-10-16T20:39:00.668Z,23.30
2022-10-16T20:42:02.900Z,23.60
2022-10-16T20:45:04.733Z,23.30
2022-10-16T20:48:06.592Z,23.30
2022-10-16T20:51:12.425Z,23.20
2022-10-16T20:54:13.802Z,23.40
2022-10-16T20:57:15.597Z,22.90
2022-10-16T21:00:17.488Z,22.90
2022-10-16T21:03:19.078Z,23.30
2022-10-16T21:06:20.569Z,23.10
2022-10-16T21:09:22.002Z,22.80
2022-10-16T21:12:24.420Z,23.40
2022-10-16T21:15:25.918Z,22.80
2022-10-16T21:18:27.637Z,23.30
2022-10-16T21:21:30.908Z,23.10
2022-10-16T21:24:32.457Z,23.30
2022-10-16T21:27:37.439Z,23.30
2022-10-16T21:30:38.861Z,23.20
2022-10-16T21:33:41.021Z,23.00
2022-10-16T21:36:42.455Z,23.20
2022-10-16T21:39:43.744Z,23.40
2022-10-16T21:42:45.756Z,22.90
2022-10-16T21:45:47.128Z,23.20
2022-10-16T21:48:48.999Z,23.30
2022-10-16T21:51:53.558Z,23.30
2022-10-16T21:54:54.980Z,23.00
2022-10-16T21:57:56.764Z,23.10
2022-10-16T22:00:58.600Z,22.80
2022-10-16T22:04:00.034Z,23.20
2022-10-16T22:07:01.364Z,23.20
2022-10-16T22:10:02.987Z,23.00
2022-10-16T22:13:05.028Z,23.10
2022-10-16T22:16:07.373Z,23.30
2022-10-16T22:19:12.400Z,23.50
2022-10-16T22:22:14.041Z,22.90
2022-10-16T22:25:15.522Z,22.90
2022-10-16T22:28:17.774Z,23.20
2022-10-16T22:31:20.465Z,23.30
2022-10-16T22:34:22.096Z,22.80
2022-10-16T22:37:23.577Z,23.00
2022-10-16T22:40:25.010Z,23.10
2022-10-16T22:43:27.039Z,23.10
2022-10-16T22:46:29.972Z,22.70
2022-10-16T22:49:31.904Z,23.20
2022-10-16T22:52:38.513Z,23.10
2022-10-16T22:55:40.183Z,23.30
2022-10-16T22:58:42.267Z,22.70
2022-10-16T23:01:43.737Z,23.20
2022-10-16T23:04:45.130Z,23.00
2022-10-16T23:07:46.409Z,23.10
2022-10-16T23:10:49.107Z,23.60
2022-10-16T23:13:51.520Z,22.70
2022-10-16T23:16:53.107Z,23.20
2022-10-16T23:19:54.728Z,23.20
2022-10-16T23:22:56.125Z,22.90
2022-10-16T23:25:57.367Z,22.50
2022-10-16T23:28:59.819Z,22.50
2022-10-16T23:32:01.723Z,23.10
2022-10-16T23:35:03.451Z,22.80
2022-10-16T23:38:04.975Z,22.80
2022-10-16T23:41:08.016Z,22.50
2022-10-16T23:44:10.396Z,22.70
2022-10-16T23:47:14.986Z,22.90
2022-10-16T23:50:16.768Z,23.00
2022-10-16T23:53:19.110Z,23.20
2022-10-16T23:56:20.649Z,22.90
2022-10-16T23:59:22.792Z,23.00
